sensor_id;sensor_type;location;lat;lon;timestamp;pressure;altitude;pressure_sealevel;temperature;humidity
39363;BME280;25088;43.238;23.110;2023-04-25T00:00:43;95604.03;;;13.59;74.26
39363;BME280;25088;43.238;23.110;2023-04-25T00:03:08;95587.25;;;13.61;71.42
39363;BME280;25088;43.238;23.110;2023-04-25T00:05:34;95583.47;;;13.57;75.33
39363;BME280;25088;43.238;23.110;2023-04-25T00:08:03;95558.97;;;13.47;76.46
39363;BME280;25088;43.238;23.110;2023-04-25T00:10:28;95582.75;;;13.51;78.10
39363;BME280;25088;43.238;23.110;2023-04-25T00:12:53;95568.84;;;13.48;73.66
39363;BME280;25088;43.238;23.110;2023-04-25T00:15:19;95580.16;;;13.60;69.37
39363;BME280;25088;43.238;23.110;2023-04-25T00:17:44;95579.78;;;13.66;72.91
39363;BME280;25088;43.238;23.110;2023-04-25T00:20:11;95577.50;;;13.55;74.56
39363;BME280;25088;43.238;23.110;2023-04-25T00:22:36;95575.06;;;13.53;74.42
39363;BME280;25088;43.238;23.110;2023-04-25T00:25:04;95580.63;;;13.48;75.19
39363;BME280;25088;43.238;23.110;2023-04-25T00:27:30;95584.38;;;13.52;72.88
39363;BME280;25088;43.238;23.110;2023-04-25T00:29:55;95583.31;;;13.67;70.74
39363;BME280;25088;43.238;23.110;2023-04-25T00:32:21;95573.06;;;13.59;76.41
39363;BME280;25088;43.238;23.110;2023-04-25T00:34:46;95505.84;;;13.05;79.62
39363;BME280;25088;43.238;23.110;2023-04-25T00:37:12;95566.88;;;13.10;85.08
39363;BME280;25088;43.238;23.110;2023-04-25T00:39:37;95565.44;;;12.94;85.37
39363;BME280;25088;43.238;23.110;2023-04-25T00:42:03;95544.66;;;12.93;82.49
39363;BME280;25088;43.238;23.110;2023-04-25T00:44:31;95554.63;;;13.03;77.14
39363;BME280;25088;43.238;23.110;2023-04-25T00:46:57;95559.31;;;13.21;71.19
39363;BME280;25088;43.238;23.110;2023-04-25T00:49:23;95552.78;;;13.74;64.59
39363;BME280;25088;43.238;23.110;2023-04-25T00:51:48;95562.25;;;14.14;61.53
39363;BME280;25088;43.238;23.110;2023-04-25T00:54:14;95563.41;;;14.40;61.36
39363;BME280;25088;43.238;23.110;2023-04-25T00:56:41;95550.75;;;14.58;59.50
39363;BME280;25088;43.238;23.110;2023-04-25T00:59:07;95567.66;;;14.46;64.51
39363;BME280;25088;43.238;23.110;2023-04-25T01:01:34;95549.88;;;14.44;62.96
39363;BME280;25088;43.238;23.110;2023-04-25T01:04:00;95543.19;;;14.50;62.34
39363;BME280;25088;43.238;23.110;2023-04-25T01:06:26;95536.03;;;14.35;63.66
39363;BME280;25088;43.238;23.110;2023-04-25T01:08:52;95527.41;;;14.28;63.48
39363;BME280;25088;43.238;23.110;2023-04-25T01:11:18;95550.41;;;14.32;63.07
39363;BME280;25088;43.238;23.110;2023-04-25T01:13:44;95550.09;;;14.61;60.50
39363;BME280;25088;43.238;23.110;2023-04-25T01:16:09;95554.31;;;14.72;59.11
39363;BME280;25088;43.238;23.110;2023-04-25T01:18:36;95534.84;;;14.83;61.34
39363;BME280;25088;43.238;23.110;2023-04-25T01:21:10;95534.75;;;14.74;62.73
39363;BME280;25088;43.238;23.110;2023-04-25T01:23:37;95538.09;;;14.85;63.22
39363;BME280;25088;43.238;23.110;2023-04-25T01:26:03;95531.09;;;14.65;64.36
39363;BME280;25088;43.238;23.110;2023-04-25T01:28:29;95538.59;;;14.45;65.13
39363;BME280;25088;43.238;23.110;2023-04-25T01:30:56;95553.31;;;14.36;66.15
39363;BME280;25088;43.238;23.110;2023-04-25T01:33:21;95550.09;;;14.34;64.32
39363;BME280;25088;43.238;23.110;2023-04-25T01:35:47;95541.31;;;14.32;65.90
39363;BME280;25088;43.238;23.110;2023-04-25T01:38:15;95544.19;;;14.40;66.11
39363;BME280;25088;43.238;23.110;2023-04-25T01:40:41;95555.88;;;14.32;68.35
39363;BME280;25088;43.238;23.110;2023-04-25T01:43:07;95549.03;;;14.16;70.97
39363;BME280;25088;43.238;23.110;2023-04-25T01:45:40;95553.31;;;14.22;70.47
39363;BME280;25088;43.238;23.110;2023-04-25T01:48:11;95528.25;;;13.96;72.70
39363;BME280;25088;43.238;23.110;2023-04-25T01:50:38;95510.75;;;13.78;72.73
39363;BME280;25088;43.238;23.110;2023-04-25T01:53:04;95525.50;;;13.96;71.53
39363;BME280;25088;43.238;23.110;2023-04-25T01:55:30;95541.13;;;13.82;72.53
39363;BME280;25088;43.238;23.110;2023-04-25T01:57:56;95517.84;;;13.79;63.41
39363;BME280;25088;43.238;23.110;2023-04-25T02:00:22;95524.84;;;14.18;60.47
39363;BME280;25088;43.238;23.110;2023-04-25T02:02:47;95531.78;;;14.43;61.63
39363;BME280;25088;43.238;23.110;2023-04-25T02:05:13;95527.91;;;14.44;63.35
39363;BME280;25088;43.238;23.110;2023-04-25T02:07:39;95529.13;;;14.38;62.38
39363;BME280;25088;43.238;23.110;2023-04-25T02:10:05;95524.41;;;14.11;66.69
39363;BME280;25088;43.238;23.110;2023-04-25T02:12:31;95520.84;;;14.10;67.35
39363;BME280;25088;43.238;23.110;2023-04-25T02:14:57;95511.38;;;13.89;69.47
39363;BME280;25088;43.238;23.110;2023-04-25T02:17:22;95520.16;;;13.72;69.75
39363;BME280;25088;43.238;23.110;2023-04-25T02:19:48;95523.47;;;13.55;66.45
39363;BME280;25088;43.238;23.110;2023-04-25T02:22:13;95521.31;;;13.85;63.88
39363;BME280;25088;43.238;23.110;2023-04-25T02:24:39;95518.44;;;14.09;62.53
39363;BME280;25088;43.238;23.110;2023-04-25T02:27:05;95522.28;;;14.21;62.19
39363;BME280;25088;43.238;23.110;2023-04-25T02:29:31;95506.59;;;13.94;63.38
39363;BME280;25088;43.238;23.110;2023-04-25T02:31:56;95519.97;;;14.15;63.10
39363;BME280;25088;43.238;23.110;2023-04-25T02:34:22;95511.03;;;14.23;66.08
39363;BME280;25088;43.238;23.110;2023-04-25T02:36:48;95506.47;;;14.32;64.67
39363;BME280;25088;43.238;23.110;2023-04-25T02:39:14;95513.38;;;14.30;66.01
39363;BME280;25088;43.238;23.110;2023-04-25T02:41:40;95507.38;;;14.28;65.98
39363;BME280;25088;43.238;23.110;2023-04-25T02:44:05;95512.22;;;14.03;67.95
39363;BME280;25088;43.238;23.110;2023-04-25T02:46:31;95500.22;;;14.27;65.76
39363;BME280;25088;43.238;23.110;2023-04-25T02:48:56;95508.66;;;14.16;66.91
39363;BME280;25088;43.238;23.110;2023-04-25T02:51:21;95505.00;;;14.21;64.13
39363;BME280;25088;43.238;23.110;2023-04-25T02:53:47;95496.50;;;14.22;66.63
39363;BME280;25088;43.238;23.110;2023-04-25T02:56:12;95500.25;;;14.13;67.26
39363;BME280;25088;43.238;23.110;2023-04-25T02:58:38;95501.06;;;14.13;66.70
39363;BME280;25088;43.238;23.110;2023-04-25T03:01:03;95499.72;;;14.25;67.04
39363;BME280;25088;43.238;23.110;2023-04-25T03:03:28;95503.06;;;14.21;67.87
39363;BME280;25088;43.238;23.110;2023-04-25T03:05:54;95509.88;;;14.10;70.18
39363;BME280;25088;43.238;23.110;2023-04-25T03:08:19;95511.81;;;14.10;72.11
39363;BME280;25088;43.238;23.110;2023-04-25T03:10:45;95503.19;;;14.03;73.86
39363;BME280;25088;43.238;23.110;2023-04-25T03:13:11;95466.41;;;13.71;73.59
39363;BME280;25088;43.238;23.110;2023-04-25T03:15:37;95509.22;;;13.86;77.47
39363;BME280;25088;43.238;23.110;2023-04-25T03:18:03;95512.97;;;13.76;77.44
39363;BME280;25088;43.238;23.110;2023-04-25T03:20:29;95518.34;;;13.67;78.21
39363;BME280;25088;43.238;23.110;2023-04-25T03:22:55;95512.19;;;13.57;76.88
39363;BME280;25088;43.238;23.110;2023-04-25T03:25:21;95527.41;;;13.49;79.67
39363;BME280;25088;43.238;23.110;2023-04-25T03:27:46;95503.16;;;13.37;77.20
39363;BME280;25088;43.238;23.110;2023-04-25T03:30:12;95497.94;;;13.22;78.90
39363;BME280;25088;43.238;23.110;2023-04-25T03:32:37;95511.31;;;13.42;80.46
39363;BME280;25088;43.238;23.110;2023-04-25T03:35:03;95508.16;;;13.35;77.19
39363;BME280;25088;43.238;23.110;2023-04-25T03:37:30;95509.66;;;13.28;79.85
39363;BME280;25088;43.238;23.110;2023-04-25T03:39:55;95511.91;;;13.20;80.33
39363;BME280;25088;43.238;23.110;2023-04-25T03:42:21;95505.13;;;13.18;81.88
39363;BME280;25088;43.238;23.110;2023-04-25T03:44:48;95509.13;;;13.26;81.23
39363;BME280;25088;43.238;23.110;2023-04-25T03:47:14;95494.09;;;13.23;81.29
39363;BME280;25088;43.238;23.110;2023-04-25T03:49:41;95513.41;;;13.32;79.12
39363;BME280;25088;43.238;23.110;2023-04-25T03:52:07;95520.09;;;13.26;82.05
39363;BME280;25088;43.238;23.110;2023-04-25T03:54:32;95507.41;;;13.30;78.45
39363;BME280;25088;43.238;23.110;2023-04-25T03:56:58;95512.16;;;13.43;77.63
39363;BME280;25088;43.238;23.110;2023-04-25T03:59:23;95518.56;;;13.52;77.08
39363;BME280;25088;43.238;23.110;2023-04-25T04:01:50;95510.78;;;13.59;75.37
39363;BME280;25088;43.238;23.110;2023-04-25T04:04:15;95505.97;;;13.51;76.31
39363;BME280;25088;43.238;23.110;2023-04-25T04:06:41;95523.94;;;13.76;78.03
39363;BME280;25088;43.238;23.110;2023-04-25T04:09:07;95516.72;;;13.80;74.63
39363;BME280;25088;43.238;23.110;2023-04-25T04:11:36;95517.94;;;13.74;76.77
39363;BME280;25088;43.238;23.110;2023-04-25T04:14:06;95523.66;;;13.78;78.25
39363;BME280;25088;43.238;23.110;2023-04-25T04:16:32;95528.78;;;13.65;77.16
39363;BME280;25088;43.238;23.110;2023-04-25T04:18:57;95521.28;;;13.71;70.73
39363;BME280;25088;43.238;23.110;2023-04-25T04:21:23;95520.59;;;13.79;71.85
39363;BME280;25088;43.238;23.110;2023-04-25T04:23:48;95525.22;;;13.98;67.80
39363;BME280;25088;43.238;23.110;2023-04-25T04:26:14;95511.22;;;14.13;67.08
39363;BME280;25088;43.238;23.110;2023-04-25T04:28:42;95500.34;;;14.21;65.67
39363;BME280;25088;43.238;23.110;2023-04-25T04:31:11;95513.66;;;14.42;67.05
39363;BME280;25088;43.238;23.110;2023-04-25T04:33:37;95506.19;;;14.47;66.19
39363;BME280;25088;43.238;23.110;2023-04-25T04:36:03;95503.19;;;14.44;61.98
39363;BME280;25088;43.238;23.110;2023-04-25T04:38:29;95512.28;;;14.72;59.33
39363;BME280;25088;43.238;23.110;2023-04-25T04:40:55;95492.53;;;14.70;61.90
39363;BME280;25088;43.238;23.110;2023-04-25T04:43:21;95513.91;;;14.73;62.72
39363;BME280;25088;43.238;23.110;2023-04-25T04:45:48;95518.56;;;14.86;64.79
39363;BME280;25088;43.238;23.110;2023-04-25T04:48:14;95523.53;;;14.98;63.43
39363;BME280;25088;43.238;23.110;2023-04-25T04:50:40;95517.59;;;15.05;65.05
39363;BME280;25088;43.238;23.110;2023-04-25T04:53:06;95516.88;;;15.13;65.24
39363;BME280;25088;43.238;23.110;2023-04-25T04:55:32;95502.50;;;15.16;65.30
39363;BME280;25088;43.238;23.110;2023-04-25T04:57:57;95525.50;;;15.20;65.93
39363;BME280;25088;43.238;23.110;2023-04-25T05:00:23;95518.50;;;15.14;61.63
39363;BME280;25088;43.238;23.110;2023-04-25T05:02:48;95521.94;;;15.19;61.89
39363;BME280;25088;43.238;23.110;2023-04-25T05:05:14;95516.91;;;15.35;62.41
39363;BME280;25088;43.238;23.110;2023-04-25T05:07:39;95516.09;;;15.35;60.02
39363;BME280;25088;43.238;23.110;2023-04-25T05:10:05;95497.84;;;15.39;60.14
39363;BME280;25088;43.238;23.110;2023-04-25T05:12:31;95512.38;;;15.53;59.84
39363;BME280;25088;43.238;23.110;2023-04-25T05:14:56;95512.53;;;15.70;57.90
39363;BME280;25088;43.238;23.110;2023-04-25T05:17:22;95514.63;;;15.96;56.25
39363;BME280;25088;43.238;23.110;2023-04-25T05:19:47;95516.88;;;15.94;59.43
39363;BME280;25088;43.238;23.110;2023-04-25T05:22:13;95527.16;;;16.02;57.43
39363;BME280;25088;43.238;23.110;2023-04-25T05:24:38;95527.75;;;16.21;56.60
39363;BME280;25088;43.238;23.110;2023-04-25T05:27:04;95529.03;;;16.24;55.73
39363;BME280;25088;43.238;23.110;2023-04-25T05:29:30;95524.25;;;16.38;54.95
39363;BME280;25088;43.238;23.110;2023-04-25T05:31:56;95529.16;;;16.50;52.60
39363;BME280;25088;43.238;23.110;2023-04-25T05:34:21;95515.09;;;16.20;54.97
39363;BME280;25088;43.238;23.110;2023-04-25T05:36:47;95512.88;;;16.00;53.60
39363;BME280;25088;43.238;23.110;2023-04-25T05:39:16;95520.00;;;16.01;53.27
39363;BME280;25088;43.238;23.110;2023-04-25T05:41:42;95523.94;;;16.09;54.28
39363;BME280;25088;43.238;23.110;2023-04-25T05:44:08;95515.88;;;16.12;54.06
39363;BME280;25088;43.238;23.110;2023-04-25T05:46:34;95487.16;;;16.05;53.10
39363;BME280;25088;43.238;23.110;2023-04-25T05:48:59;95489.69;;;15.92;53.24
39363;BME280;25088;43.238;23.110;2023-04-25T05:51:25;95517.03;;;15.89;54.58
39363;BME280;25088;43.238;23.110;2023-04-25T05:53:51;95496.06;;;15.79;54.03
39363;BME280;25088;43.238;23.110;2023-04-25T05:56:16;95529.59;;;16.03;54.93
39363;BME280;25088;43.238;23.110;2023-04-25T05:58:42;95527.50;;;16.09;53.84
39363;BME280;25088;43.238;23.110;2023-04-25T06:01:07;95517.91;;;15.98;53.45
39363;BME280;25088;43.238;23.110;2023-04-25T06:03:34;95530.16;;;15.92;54.03
39363;BME280;25088;43.238;23.110;2023-04-25T06:05:59;95531.22;;;15.82;53.76
39363;BME280;25088;43.238;23.110;2023-04-25T06:08:25;95524.28;;;16.16;54.04
39363;BME280;25088;43.238;23.110;2023-04-25T06:10:50;95525.13;;;16.47;53.82
39363;BME280;25088;43.238;23.110;2023-04-25T06:13:16;95526.94;;;16.61;53.94
39363;BME280;25088;43.238;23.110;2023-04-25T06:15:41;95533.84;;;16.72;52.50
39363;BME280;25088;43.238;23.110;2023-04-25T06:18:07;95522.22;;;16.92;51.87
39363;BME280;25088;43.238;23.110;2023-04-25T06:20:32;95522.16;;;16.75;52.19
39363;BME280;25088;43.238;23.110;2023-04-25T06:22:58;95523.91;;;16.71;52.08
39363;BME280;25088;43.238;23.110;2023-04-25T06:25:23;95523.03;;;16.93;51.88
39363;BME280;25088;43.238;23.110;2023-04-25T06:27:48;95522.81;;;16.72;50.72
39363;BME280;25088;43.238;23.110;2023-04-25T06:30:14;95522.81;;;16.80;51.65
39363;BME280;25088;43.238;23.110;2023-04-25T06:32:40;95526.25;;;16.86;50.54
39363;BME280;25088;43.238;23.110;2023-04-25T06:35:06;95528.72;;;16.96;51.19
39363;BME280;25088;43.238;23.110;2023-04-25T06:37:31;95525.00;;;17.10;50.58
39363;BME280;25088;43.238;23.110;2023-04-25T06:39:57;95527.44;;;17.20;49.35
39363;BME280;25088;43.238;23.110;2023-04-25T06:42:22;95533.16;;;17.32;49.48
39363;BME280;25088;43.238;23.110;2023-04-25T06:44:47;95531.88;;;17.47;49.72
39363;BME280;25088;43.238;23.110;2023-04-25T06:47:14;95531.88;;;17.55;48.51
39363;BME280;25088;43.238;23.110;2023-04-25T06:49:39;95520.34;;;17.53;48.48
39363;BME280;25088;43.238;23.110;2023-04-25T06:52:05;95529.09;;;17.99;48.96
39363;BME280;25088;43.238;23.110;2023-04-25T06:54:30;95536.22;;;18.08;47.34
39363;BME280;25088;43.238;23.110;2023-04-25T06:56:56;95534.72;;;18.20;47.05
39363;BME280;25088;43.238;23.110;2023-04-25T06:59:22;95533.38;;;18.43;46.88
39363;BME280;25088;43.238;23.110;2023-04-25T07:01:47;95534.38;;;18.39;47.45
39363;BME280;25088;43.238;23.110;2023-04-25T07:04:13;95531.84;;;18.16;48.01
39363;BME280;25088;43.238;23.110;2023-04-25T07:06:38;95526.75;;;18.27;47.63
39363;BME280;25088;43.238;23.110;2023-04-25T07:09:11;95523.81;;;18.32;46.38
39363;BME280;25088;43.238;23.110;2023-04-25T07:11:37;95521.78;;;18.03;46.64
39363;BME280;25088;43.238;23.110;2023-04-25T07:14:03;95532.91;;;18.41;46.43
39363;BME280;25088;43.238;23.110;2023-04-25T07:16:28;95537.66;;;18.32;46.71
39363;BME280;25088;43.238;23.110;2023-04-25T07:18:54;95535.22;;;18.30;46.20
39363;BME280;25088;43.238;23.110;2023-04-25T07:21:19;95534.44;;;18.21;45.80
39363;BME280;25088;43.238;23.110;2023-04-25T07:23:45;95533.63;;;17.69;47.65
39363;BME280;25088;43.238;23.110;2023-04-25T07:26:10;95533.03;;;17.80;46.64
39363;BME280;25088;43.238;23.110;2023-04-25T07:28:36;95522.56;;;18.21;46.70
39363;BME280;25088;43.238;23.110;2023-04-25T07:31:01;95533.16;;;18.10;46.21
39363;BME280;25088;43.238;23.110;2023-04-25T07:33:27;95528.56;;;18.14;45.09
39363;BME280;25088;43.238;23.110;2023-04-25T07:35:53;95534.72;;;18.28;45.15
39363;BME280;25088;43.238;23.110;2023-04-25T07:38:18;95530.59;;;18.52;44.95
39363;BME280;25088;43.238;23.110;2023-04-25T07:40:44;95518.28;;;18.41;45.38
39363;BME280;25088;43.238;23.110;2023-04-25T07:43:10;95537.16;;;18.85;45.22
39363;BME280;25088;43.238;23.110;2023-04-25T07:45:39;95524.41;;;18.93;45.87
39363;BME280;25088;43.238;23.110;2023-04-25T07:48:05;95524.69;;;19.30;44.02
39363;BME280;25088;43.238;23.110;2023-04-25T07:50:31;95537.84;;;19.03;44.58
39363;BME280;25088;43.238;23.110;2023-04-25T07:52:56;95538.53;;;18.71;46.04
39363;BME280;25088;43.238;23.110;2023-04-25T07:55:21;95541.91;;;18.68;45.75
39363;BME280;25088;43.238;23.110;2023-04-25T07:57:47;95538.38;;;18.97;46.20
39363;BME280;25088;43.238;23.110;2023-04-25T08:00:13;95552.81;;;18.64;45.26
39363;BME280;25088;43.238;23.110;2023-04-25T08:02:40;95547.06;;;18.31;46.33
39363;BME280;25088;43.238;23.110;2023-04-25T08:05:05;95500.84;;;17.93;45.67
39363;BME280;25088;43.238;23.110;2023-04-25T08:07:33;95532.31;;;18.09;46.44
39363;BME280;25088;43.238;23.110;2023-04-25T08:09:59;95540.84;;;18.43;46.36
39363;BME280;25088;43.238;23.110;2023-04-25T08:12:24;95542.13;;;19.51;44.00
39363;BME280;25088;43.238;23.110;2023-04-25T08:14:50;95551.63;;;20.37;41.57
39363;BME280;25088;43.238;23.110;2023-04-25T08:17:15;95552.34;;;19.80;42.66
39363;BME280;25088;43.238;23.110;2023-04-25T08:19:41;95545.69;;;20.48;41.94
39363;BME280;25088;43.238;23.110;2023-04-25T08:22:06;95537.75;;;20.83;41.79
39363;BME280;25088;43.238;23.110;2023-04-25T08:24:32;95542.28;;;20.42;40.69
39363;BME280;25088;43.238;23.110;2023-04-25T08:26:58;95554.03;;;19.73;42.18
39363;BME280;25088;43.238;23.110;2023-04-25T08:29:24;95560.25;;;18.90;43.74
39363;BME280;25088;43.238;23.110;2023-04-25T08:31:51;95557.38;;;18.69;44.82
39363;BME280;25088;43.238;23.110;2023-04-25T08:34:18;95559.91;;;18.27;45.31
39363;BME280;25088;43.238;23.110;2023-04-25T08:36:44;95563.31;;;18.32;45.69
39363;BME280;25088;43.238;23.110;2023-04-25T08:39:09;95512.88;;;17.80;46.29
39363;BME280;25088;43.238;23.110;2023-04-25T08:41:37;95565.72;;;18.51;45.67
39363;BME280;25088;43.238;23.110;2023-04-25T08:44:03;95545.75;;;18.84;45.24
39363;BME280;25088;43.238;23.110;2023-04-25T08:46:30;95553.44;;;19.58;42.94
39363;BME280;25088;43.238;23.110;2023-04-25T08:49:00;95558.63;;;19.69;42.70
39363;BME280;25088;43.238;23.110;2023-04-25T08:51:26;95541.53;;;20.21;41.94
39363;BME280;25088;43.238;23.110;2023-04-25T08:53:53;95540.50;;;20.58;40.94
39363;BME280;25088;43.238;23.110;2023-04-25T08:56:19;95526.44;;;21.00;40.20
39363;BME280;25088;43.238;23.110;2023-04-25T08:58:50;95547.50;;;21.13;39.92
39363;BME280;25088;43.238;23.110;2023-04-25T09:01:17;95539.16;;;21.26;39.79
39363;BME280;25088;43.238;23.110;2023-04-25T09:03:44;95542.69;;;20.53;39.76
39363;BME280;25088;43.238;23.110;2023-04-25T09:06:11;95542.66;;;20.07;40.64
39363;BME280;25088;43.238;23.110;2023-04-25T09:08:37;95542.06;;;20.02;40.42
39363;BME280;25088;43.238;23.110;2023-04-25T09:11:06;95537.66;;;20.01;41.03
39363;BME280;25088;43.238;23.110;2023-04-25T09:13:32;95547.38;;;20.07;42.06
39363;BME280;25088;43.238;23.110;2023-04-25T09:15:57;95550.44;;;19.72;42.05
39363;BME280;25088;43.238;23.110;2023-04-25T09:18:33;95547.88;;;19.67;42.55
39363;BME280;25088;43.238;23.110;2023-04-25T09:21:10;95555.13;;;19.00;42.06
39363;BME280;25088;43.238;23.110;2023-04-25T09:23:47;95548.88;;;18.82;43.59
39363;BME280;25088;43.238;23.110;2023-04-25T09:26:17;95559.22;;;18.39;44.90
39363;BME280;25088;43.238;23.110;2023-04-25T09:28:43;95535.25;;;18.13;46.10
39363;BME280;25088;43.238;23.110;2023-04-25T09:31:12;95557.84;;;17.98;46.36
39363;BME280;25088;43.238;23.110;2023-04-25T09:33:46;95570.34;;;18.04;45.86
39363;BME280;25088;43.238;23.110;2023-04-25T09:36:11;95558.44;;;18.29;45.98
39363;BME280;25088;43.238;23.110;2023-04-25T09:38:41;95534.97;;;19.50;43.81
39363;BME280;25088;43.238;23.110;2023-04-25T09:41:08;95513.00;;;21.27;40.82
39363;BME280;25088;43.238;23.110;2023-04-25T09:43:34;95528.09;;;22.06;38.82
39363;BME280;25088;43.238;23.110;2023-04-25T09:46:00;95504.25;;;22.05;38.42
39363;BME280;25088;43.238;23.110;2023-04-25T09:48:27;95536.50;;;20.80;39.61
39363;BME280;25088;43.238;23.110;2023-04-25T09:51:10;95545.03;;;20.30;40.34
39363;BME280;25088;43.238;23.110;2023-04-25T09:53:41;95539.53;;;20.42;39.86
39363;BME280;25088;43.238;23.110;2023-04-25T09:56:08;95543.22;;;20.46;39.60
39363;BME280;25088;43.238;23.110;2023-04-25T09:58:35;95534.69;;;20.06;40.21
39363;BME280;25088;43.238;23.110;2023-04-25T10:01:05;95505.75;;;19.61;40.77
39363;BME280;25088;43.238;23.110;2023-04-25T10:03:32;95529.97;;;19.85;40.95
39363;BME280;25088;43.238;23.110;2023-04-25T10:06:03;95528.44;;;19.76;41.18
39363;BME280;25088;43.238;23.110;2023-04-25T10:08:34;95533.34;;;19.91;41.28
39363;BME280;25088;43.238;23.110;2023-04-25T10:11:03;95526.75;;;20.17;41.62
39363;BME280;25088;43.238;23.110;2023-04-25T10:13:30;95515.81;;;20.90;40.40
39363;BME280;25088;43.238;23.110;2023-04-25T10:16:00;95505.56;;;22.83;37.22
39363;BME280;25088;43.238;23.110;2023-04-25T10:18:27;95494.81;;;24.45;34.60
39363;BME280;25088;43.238;23.110;2023-04-25T10:20:58;95494.41;;;23.66;34.82
39363;BME280;25088;43.238;23.110;2023-04-25T10:23:24;95490.00;;;22.51;36.69
39363;BME280;25088;43.238;23.110;2023-04-25T10:25:51;95495.94;;;22.65;36.65
39363;BME280;25088;43.238;23.110;2023-04-25T10:28:17;95490.69;;;22.16;37.26
39363;BME280;25088;43.238;23.110;2023-04-25T10:31:03;95485.38;;;21.18;38.05
39363;BME280;25088;43.238;23.110;2023-04-25T10:33:40;95490.16;;;20.81;39.86
39363;BME280;25088;43.238;23.110;2023-04-25T10:36:33;95502.75;;;20.33;40.81
39363;BME280;25088;43.238;23.110;2023-04-25T10:39:03;95502.59;;;20.05;40.90
39363;BME280;25088;43.238;23.110;2023-04-25T10:41:45;95510.53;;;19.94;44.18
39363;BME280;25088;43.238;23.110;2023-04-25T10:44:11;95521.59;;;19.52;44.29
39363;BME280;25088;43.238;23.110;2023-04-25T10:46:37;95536.28;;;18.55;48.15
39363;BME280;25088;43.238;23.110;2023-04-25T10:49:03;95550.22;;;17.95;52.52
39363;BME280;25088;43.238;23.110;2023-04-25T10:51:31;95557.94;;;17.06;59.72
39363;BME280;25088;43.238;23.110;2023-04-25T10:54:05;95553.00;;;15.92;67.03
39363;BME280;25088;43.238;23.110;2023-04-25T10:56:33;95566.53;;;15.30;73.36
39363;BME280;25088;43.238;23.110;2023-04-25T10:59:10;95581.34;;;14.79;77.61
39363;BME280;25088;43.238;23.110;2023-04-25T11:01:41;95578.50;;;14.10;80.69
39363;BME280;25088;43.238;23.110;2023-04-25T11:04:30;95593.78;;;13.84;85.27
39363;BME280;25088;43.238;23.110;2023-04-25T11:07:22;95584.94;;;13.87;85.00
39363;BME280;25088;43.238;23.110;2023-04-25T11:09:49;95576.88;;;14.09;88.29
39363;BME280;25088;43.238;23.110;2023-04-25T11:12:15;95569.72;;;14.27;82.06
39363;BME280;25088;43.238;23.110;2023-04-25T11:14:41;95561.50;;;14.55;81.85
39363;BME280;25088;43.238;23.110;2023-04-25T11:17:07;95554.34;;;15.09;83.06
39363;BME280;25088;43.238;23.110;2023-04-25T11:19:32;95554.44;;;16.21;80.15
39363;BME280;25088;43.238;23.110;2023-04-25T11:21:59;95551.72;;;16.92;73.97
39363;BME280;25088;43.238;23.110;2023-04-25T11:24:30;95548.72;;;17.54;64.94
39363;BME280;25088;43.238;23.110;2023-04-25T11:26:57;95534.78;;;18.02;65.07
39363;BME280;25088;43.238;23.110;2023-04-25T11:29:26;95543.81;;;18.38;56.51
39363;BME280;25088;43.238;23.110;2023-04-25T11:31:52;95535.16;;;18.95;55.23
39363;BME280;25088;43.238;23.110;2023-04-25T11:34:18;95512.28;;;19.36;55.18
39363;BME280;25088;43.238;23.110;2023-04-25T11:36:45;95529.78;;;20.69;49.56
39363;BME280;25088;43.238;23.110;2023-04-25T11:39:10;95543.50;;;19.87;50.44
39363;BME280;25088;43.238;23.110;2023-04-25T11:41:37;95556.84;;;19.64;50.11
39363;BME280;25088;43.238;23.110;2023-04-25T11:44:04;95569.25;;;19.07;55.41
39363;BME280;25088;43.238;23.110;2023-04-25T11:46:30;95561.28;;;19.06;55.90
39363;BME280;25088;43.238;23.110;2023-04-25T11:48:57;95572.03;;;18.60;53.32
39363;BME280;25088;43.238;23.110;2023-04-25T11:51:22;95571.44;;;18.29;54.77
39363;BME280;25088;43.238;23.110;2023-04-25T11:53:48;95574.88;;;18.26;56.40
39363;BME280;25088;43.238;23.110;2023-04-25T11:56:13;95575.34;;;18.37;57.74
39363;BME280;25088;43.238;23.110;2023-04-25T11:59:03;95572.63;;;18.02;57.20
39363;BME280;25088;43.238;23.110;2023-04-25T12:01:33;95573.78;;;17.75;60.02
39363;BME280;25088;43.238;23.110;2023-04-25T12:04:20;95572.91;;;17.31;60.07
39363;BME280;25088;43.238;23.110;2023-04-25T12:06:47;95569.66;;;17.29;62.18
39363;BME280;25088;43.238;23.110;2023-04-25T12:09:14;95570.06;;;17.05;61.75
39363;BME280;25088;43.238;23.110;2023-04-25T12:11:54;95564.00;;;16.77;65.68
39363;BME280;25088;43.238;23.110;2023-04-25T12:14:25;95571.59;;;16.71;69.17
39363;BME280;25088;43.238;23.110;2023-04-25T12:16:52;95566.75;;;16.77;68.20
39363;BME280;25088;43.238;23.110;2023-04-25T12:19:19;95560.34;;;16.99;64.05
39363;BME280;25088;43.238;23.110;2023-04-25T12:21:45;95560.75;;;17.41;62.38
39363;BME280;25088;43.238;23.110;2023-04-25T12:24:12;95542.28;;;17.76;61.70
39363;BME280;25088;43.238;23.110;2023-04-25T12:27:01;95524.00;;;18.27;61.85
39363;BME280;25088;43.238;23.110;2023-04-25T12:29:28;95524.94;;;18.87;58.13
39363;BME280;25088;43.238;23.110;2023-04-25T12:31:55;95505.47;;;19.04;55.06
39363;BME280;25088;43.238;23.110;2023-04-25T12:34:22;95498.63;;;19.31;55.75
39363;BME280;25088;43.238;23.110;2023-04-25T12:36:48;95515.19;;;19.81;54.00
39363;BME280;25088;43.238;23.110;2023-04-25T12:39:18;95517.75;;;20.20;53.97
39363;BME280;25088;43.238;23.110;2023-04-25T12:41:45;95536.38;;;19.98;50.41
39363;BME280;25088;43.238;23.110;2023-04-25T12:44:11;95527.53;;;19.84;51.04
39363;BME280;25088;43.238;23.110;2023-04-25T12:46:36;95533.66;;;19.48;50.57
39363;BME280;25088;43.238;23.110;2023-04-25T12:49:03;95529.69;;;19.36;51.57